createdAt,value
2022-11-21T00:00:37.158Z,100620.84
2022-11-21T00:03:06.624Z,100613.95
2022-11-21T00:05:37.628Z,100620.61
2022-11-21T00:08:07.938Z,100632.95
2022-11-21T00:10:38.153Z,100627.95
2022-11-21T00:13:08.513Z,100633.86
2022-11-21T00:15:37.798Z,100634.13
2022-11-21T00:18:07.186Z,100642.17
2022-11-21T00:20:37.221Z,100638.11
2022-11-21T00:23:06.783Z,100644.56
2022-11-21T00:25:36.787Z,100643.86
2022-11-21T00:28:06.839Z,100643.12
2022-11-21T00:30:37.023Z,100638.02
2022-11-21T00:33:06.445Z,100634.45
2022-11-21T00:35:35.839Z,100648.13
2022-11-21T00:38:05.304Z,100650.77
2022-11-21T00:40:34.539Z,100648.96
2022-11-21T00:43:03.887Z,100651.50
2022-11-21T00:45:33.361Z,100626.53
2022-11-21T00:48:02.957Z,100633.58
2022-11-21T00:50:32.373Z,100629.80
2022-11-21T00:53:01.594Z,100625.83
2022-11-21T00:55:30.837Z,100617.30
2022-11-21T00:58:00.052Z,100623.14
2022-11-21T01:00:29.563Z,100623.72
2022-11-21T01:02:58.785Z,100619.64
2022-11-21T01:05:28.021Z,100616.59
2022-11-21T01:07:57.337Z,100608.96
2022-11-21T01:10:26.573Z,100607.30
2022-11-21T01:12:55.792Z,100611.27
2022-11-21T01:15:25.280Z,100616.67
2022-11-21T01:17:54.478Z,100609.10
2022-11-21T01:20:23.853Z,100611.25
2022-11-21T01:22:53.081Z,100619.75
2022-11-21T01:25:22.438Z,100624.16
2022-11-21T01:27:51.650Z,100623.98
2022-11-21T01:30:21.078Z,100624.17
2022-11-21T01:32:50.453Z,100625.88
2022-11-21T01:35:20.348Z,100623.31
2022-11-21T01:37:50.394Z,100633.84
2022-11-21T01:40:19.815Z,100632.80
2022-11-21T01:43:04.253Z,100632.05
2022-11-21T01:45:56.085Z,100631.53
2022-11-21T01:48:28.453Z,100633.27
2022-11-21T01:50:59.652Z,100632.92
2022-11-21T01:53:28.965Z,100638.86
2022-11-21T01:55:58.264Z,100633.85
2022-11-21T01:58:27.662Z,100624.45
2022-11-21T02:00:57.245Z,100630.48
2022-11-21T02:03:28.813Z,100642.30
2022-11-21T02:05:58.716Z,100630.30
2022-11-21T02:08:28.719Z,100629.19
2022-11-21T02:11:25.590Z,100636.25
2022-11-21T02:13:55.268Z,100635.28
2022-11-21T02:16:25.566Z,100634.16
2022-11-21T02:18:55.474Z,100630.13
2022-11-21T02:21:43.212Z,100630.97
2022-11-21T02:24:30.606Z,100633.84
2022-11-21T02:27:01.088Z,100634.42
2022-11-21T02:29:30.467Z,100635.64
2022-11-21T02:32:05.432Z,100640.13
2022-11-21T02:34:35.099Z,100637.34
2022-11-21T02:37:04.326Z,100640.87
2022-11-21T02:39:36.632Z,100632.22
2022-11-21T02:42:18.511Z,100632.09
2022-11-21T02:44:54.289Z,100626.03
2022-11-21T02:47:24.188Z,100626.03
2022-11-21T02:50:15.293Z,100627.83
2022-11-21T02:52:44.779Z,100629.78
2022-11-21T02:55:15.690Z,100632.33
2022-11-21T02:57:45.264Z,100632.45
2022-11-21T03:00:15.035Z,100634.01
2022-11-21T03:02:44.553Z,100631.30
2022-11-21T03:05:16.704Z,100638.17
2022-11-21T03:07:46.489Z,100642.78
2022-11-21T03:10:16.476Z,100630.17
2022-11-21T03:12:45.750Z,100619.11
2022-11-21T03:15:16.787Z,100623.19
2022-11-21T03:17:49.615Z,100621.60
2022-11-21T03:20:19.049Z,100621.23
2022-11-21T03:22:48.258Z,100620.50
2022-11-21T03:25:18.126Z,100620.90
2022-11-21T03:27:47.409Z,100618.66
2022-11-21T03:30:17.315Z,100619.79
2022-11-21T03:32:46.525Z,100607.56
2022-11-21T03:35:16.529Z,100602.58
2022-11-21T03:37:45.819Z,100596.27
2022-11-21T03:40:15.481Z,100599.00
2022-11-21T03:42:45.024Z,100603.51
2022-11-21T03:45:14.559Z,100600.63
2022-11-21T03:47:43.953Z,100602.64
2022-11-21T03:50:15.296Z,100600.02
2022-11-21T03:52:44.571Z,100606.28
2022-11-21T03:55:15.240Z,100606.60
2022-11-21T03:57:44.672Z,100600.30
2022-11-21T04:00:15.014Z,100596.98
2022-11-21T04:02:44.358Z,100594.66
2022-11-21T04:05:13.887Z,100592.28
2022-11-21T04:07:43.203Z,100596.14
2022-11-21T04:10:12.748Z,100597.61
2022-11-21T04:12:41.988Z,100600.83
2022-11-21T04:15:13.882Z,100605.47
2022-11-21T04:17:42.578Z,100600.61
2022-11-21T04:20:12.514Z,100596.03
2022-11-21T04:22:41.716Z,100592.55
2022-11-21T04:25:13.876Z,100587.05
2022-11-21T04:27:43.075Z,100587.89
2022-11-21T04:30:13.129Z,100588.42
2022-11-21T04:32:42.352Z,100587.70
2022-11-21T04:35:11.732Z,100596.37
2022-11-21T04:37:41.104Z,100597.58
2022-11-21T04:40:11.394Z,100593.52
2022-11-21T04:42:44.659Z,100594.50
2022-11-21T04:45:14.962Z,100593.59
2022-11-21T04:47:46.008Z,100594.50
2022-11-21T04:50:17.858Z,100592.21
2022-11-21T04:52:54.624Z,100580.59
2022-11-21T04:55:27.097Z,100563.80
2022-11-21T04:57:55.587Z,100562.00
2022-11-21T05:00:24.830Z,100557.99
2022-11-21T05:02:54.280Z,100559.72
2022-11-21T05:05:23.939Z,100554.02
2022-11-21T05:07:53.268Z,100548.65
2022-11-21T05:10:22.734Z,100546.22
2022-11-21T05:13:17.388Z,100546.56
2022-11-21T05:15:48.998Z,100551.76
2022-11-21T05:18:20.014Z,100542.37
2022-11-21T05:20:49.311Z,100538.94
2022-11-21T05:23:18.681Z,100526.22
2022-11-21T05:25:47.954Z,100528.28
2022-11-21T05:28:17.156Z,100523.42
2022-11-21T05:30:46.435Z,100524.58
2022-11-21T05:33:15.625Z,100515.03
2022-11-21T05:35:44.994Z,100516.56
2022-11-21T05:38:14.338Z,100512.49
2022-11-21T05:40:43.616Z,100523.00
2022-11-21T05:43:31.278Z,100530.00
2022-11-21T05:46:00.658Z,100518.05
2022-11-21T05:48:29.865Z,100505.11
2022-11-21T05:50:59.359Z,100507.31
2022-11-21T05:53:28.568Z,100502.59
2022-11-21T05:55:57.988Z,100495.78
2022-11-21T05:58:27.186Z,100496.72
2022-11-21T06:01:00.595Z,100490.85
2022-11-21T06:03:33.144Z,100487.04
2022-11-21T06:06:02.391Z,100487.70
2022-11-21T06:08:33.953Z,100486.62
2022-11-21T06:11:03.891Z,100486.94
2022-11-21T06:13:33.984Z,100484.42
2022-11-21T06:16:08.558Z,100481.83
2022-11-21T06:18:39.554Z,100476.45
2022-11-21T06:21:12.054Z,100484.39
2022-11-21T06:23:40.835Z,100483.78
2022-11-21T06:26:15.315Z,100475.44
2022-11-21T06:28:46.161Z,100473.95
2022-11-21T06:31:17.352Z,100475.97
2022-11-21T06:33:47.429Z,100470.59
2022-11-21T06:36:18.741Z,100471.35
2022-11-21T06:38:48.594Z,100474.32
2022-11-21T06:41:19.957Z,100465.25
2022-11-21T06:43:49.474Z,100461.53
2022-11-21T06:46:19.502Z,100448.91
2022-11-21T06:48:48.788Z,100451.80
2022-11-21T06:51:19.842Z,100451.33
2022-11-21T06:53:53.436Z,100448.55
2022-11-21T06:56:23.317Z,100446.31
2022-11-21T06:58:52.807Z,100443.95
2022-11-21T07:01:22.097Z,100440.86
2022-11-21T07:03:51.826Z,100442.12
2022-11-21T07:06:21.086Z,100443.59
2022-11-21T07:09:31.174Z,100441.98
2022-11-21T07:11:28.675Z,100437.13
2022-11-21T07:13:57.906Z,100437.37
2022-11-21T07:16:29.709Z,100431.66
2022-11-21T07:19:00.363Z,100435.11
2022-11-21T07:21:29.778Z,100443.84
2022-11-21T07:23:59.091Z,100438.63
2022-11-21T07:26:28.482Z,100440.08
2022-11-21T07:28:58.986Z,100443.53
2022-11-21T07:31:28.619Z,100439.46
2022-11-21T07:33:57.857Z,100440.20
2022-11-21T07:36:27.311Z,100438.14
2022-11-21T07:38:56.557Z,100442.95
2022-11-21T07:41:26.077Z,100444.39
2022-11-21T07:43:55.292Z,100435.27
2022-11-21T07:46:24.835Z,100434.60
2022-11-21T07:48:54.077Z,100434.60
2022-11-21T07:51:23.436Z,100432.51
2022-11-21T07:53:52.687Z,100426.61
2022-11-21T07:56:22.036Z,100425.50
2022-11-21T07:58:53.511Z,100424.56
2022-11-21T08:01:22.900Z,100427.02
2022-11-21T08:03:52.355Z,100427.22
2022-11-21T08:06:21.661Z,100424.66
2022-11-21T08:08:55.176Z,100418.53
2022-11-21T08:11:25.757Z,100416.27
2022-11-21T08:13:55.046Z,100412.56
2022-11-21T08:16:25.932Z,100412.69
2022-11-21T08:18:56.005Z,100412.48
2022-11-21T08:21:25.208Z,100401.16
2022-11-21T08:23:55.576Z,100400.75
2022-11-21T08:26:24.789Z,100396.41
2022-11-21T08:28:59.653Z,100386.11
2022-11-21T08:31:25.035Z,100382.06
2022-11-21T08:33:58.586Z,100383.30
2022-11-21T08:36:27.804Z,100387.64
2022-11-21T08:38:57.381Z,100385.56
2022-11-21T08:41:34.294Z,100387.75
2022-11-21T08:44:03.622Z,100379.59
2022-11-21T08:46:35.289Z,100376.66
2022-11-21T08:49:08.427Z,100381.21
2022-11-21T08:51:37.907Z,100378.06
2022-11-21T08:54:08.115Z,100372.08
2022-11-21T08:56:37.395Z,100374.72
2022-11-21T08:59:06.655Z,100359.50
2022-11-21T09:01:36.066Z,100351.36
2022-11-21T09:04:06.543Z,100352.82
2022-11-21T09:06:35.843Z,100350.34
2022-11-21T09:09:07.097Z,100346.70
2022-11-21T09:11:37.821Z,100343.42
2022-11-21T09:14:25.892Z,100337.86
2022-11-21T09:17:13.521Z,100336.59
2022-11-21T09:19:42.914Z,100343.05
2022-11-21T09:22:12.328Z,100341.17
2022-11-21T09:24:41.624Z,100341.43
2022-11-21T09:27:10.952Z,100332.77
2022-11-21T09:29:40.150Z,100330.84
2022-11-21T09:32:09.502Z,100329.38
2022-11-21T09:34:38.714Z,100329.82
2022-11-21T09:37:08.043Z,100324.89
2022-11-21T09:39:37.346Z,100321.36
2022-11-21T09:42:10.026Z,100314.17
2022-11-21T09:44:43.376Z,100316.09
2022-11-21T09:47:41.879Z,100315.50
2022-11-21T09:50:17.144Z,100306.70
2022-11-21T09:53:04.624Z,100302.69
2022-11-21T09:55:40.060Z,100306.11
2022-11-21T09:58:12.549Z,100305.13
2022-11-21T10:00:41.925Z,100300.70
2022-11-21T10:03:14.743Z,100300.36
2022-11-21T10:05:44.652Z,100303.27
2022-11-21T10:08:31.926Z,100300.48
2022-11-21T10:11:24.034Z,100293.10
2022-11-21T10:13:59.470Z,100292.13
2022-11-21T10:16:52.700Z,100281.95
2022-11-21T10:19:58.802Z,100275.25
2022-11-21T10:22:31.207Z,100273.65
2022-11-21T10:25:15.302Z,100276.81
2022-11-21T10:27:50.734Z,100264.74
2022-11-21T10:30:21.972Z,100261.57
2022-11-21T10:32:57.143Z,100255.48
2022-11-21T10:35:38.361Z,100265.39
2022-11-21T10:38:19.763Z,100259.88
2022-11-21T10:40:58.130Z,100259.95
2022-11-21T10:43:57.823Z,100258.20
2022-11-21T10:46:27.103Z,100247.63
2022-11-21T10:49:04.373Z,100237.91
2022-11-21T10:51:55.034Z,100242.18
2022-11-21T10:54:33.467Z,100237.54
2022-11-21T10:57:08.489Z,100228.64
2022-11-21T10:59:37.799Z,100228.67
2022-11-21T11:02:22.959Z,100224.11
2022-11-21T11:05:11.876Z,100220.00
2022-11-21T11:07:41.535Z,100208.54
2022-11-21T11:10:27.510Z,100205.90
2022-11-21T11:13:38.807Z,100206.35
2022-11-21T11:16:00.682Z,100198.23
2022-11-21T11:18:30.154Z,100195.73
2022-11-21T11:21:17.145Z,100186.60
2022-11-21T11:23:47.578Z,100180.79
2022-11-21T11:26:31.200Z,100169.58
2022-11-21T11:29:12.731Z,100169.03
2022-11-21T11:31:43.976Z,100160.74
2022-11-21T11:34:15.231Z,100154.95
2022-11-21T11:37:06.697Z,100143.36
2022-11-21T11:40:00.359Z,100137.86
2022-11-21T11:42:50.614Z,100140.27
2022-11-21T11:46:06.633Z,100126.17
2022-11-21T11:48:56.642Z,100122.05
2022-11-21T11:51:13.921Z,100103.62
2022-11-21T11:53:46.955Z,100098.09
2022-11-21T11:56:25.548Z,100093.37
2022-11-21T11:59:18.075Z,100088.20
2022-11-21T12:02:10.367Z,100085.20
2022-11-21T12:04:42.238Z,100078.58
2022-11-21T12:08:12.601Z,100067.16
2022-11-21T12:10:27.827Z,100071.96
2022-11-21T12:13:09.762Z,100057.07
2022-11-21T12:15:52.910Z,100047.22
2022-11-21T12:18:28.176Z,100035.55
2022-11-21T12:21:18.554Z,100032.25
2022-11-21T12:23:57.019Z,100025.26
2022-11-21T12:27:04.483Z,100015.36
2022-11-21T12:29:39.951Z,100011.05
2022-11-21T12:32:12.333Z,100006.86
2022-11-21T12:35:11.599Z,100007.94
2022-11-21T12:37:49.862Z,99999.66
2022-11-21T12:40:34.497Z,99991.16
2022-11-21T12:43:26.416Z,99986.46
2022-11-21T12:45:58.636Z,99982.53
2022-11-21T12:49:08.132Z,99971.88
2022-11-21T12:52:01.382Z,99959.25
2022-11-21T12:54:38.576Z,99943.58
2022-11-21T12:57:16.396Z,99931.98
2022-11-21T13:00:10.011Z,99930.31
2022-11-21T13:03:07.029Z,99929.08
2022-11-21T13:05:38.451Z,99903.47
2022-11-21T13:08:11.264Z,99909.08
2022-11-21T13:10:43.417Z,99903.04
2022-11-21T13:13:24.793Z,99890.84
2022-11-21T13:16:11.960Z,99882.91
2022-11-21T13:18:48.236Z,99894.91
2022-11-21T13:21:43.821Z,99891.02
2022-11-21T13:24:13.108Z,99884.27
2022-11-21T13:26:48.175Z,99881.04
2022-11-21T13:29:17.497Z,99875.80
2022-11-21T13:31:48.114Z,99879.03
2022-11-21T13:34:37.640Z,99861.50
2022-11-21T13:37:07.139Z,99861.64
2022-11-21T13:39:37.278Z,99860.05
2022-11-21T13:42:26.404Z,99851.96
2022-11-21T13:44:56.144Z,99846.39
2022-11-21T13:47:34.219Z,99835.00
2022-11-21T13:50:31.298Z,99833.63
2022-11-21T13:53:06.113Z,99835.08
2022-11-21T13:55:51.207Z,99821.98
2022-11-21T13:58:35.845Z,99823.76
2022-11-21T14:01:17.507Z,99821.98
2022-11-21T14:04:20.984Z,99812.81
2022-11-21T14:06:50.312Z,99813.28
2022-11-21T14:09:39.831Z,99805.59
2022-11-21T14:12:13.676Z,99809.05
2022-11-21T14:14:51.618Z,99805.73
2022-11-21T14:17:36.130Z,99800.49
2022-11-21T14:20:20.398Z,99799.45
2022-11-21T14:22:54.992Z,99794.42
2022-11-21T14:25:40.288Z,99782.17
2022-11-21T14:28:13.136Z,99780.89
2022-11-21T14:30:42.359Z,99772.75
2022-11-21T14:33:32.140Z,99762.95
2022-11-21T14:36:25.536Z,99764.48
2022-11-21T14:41:28.958Z,99753.61
2022-11-21T14:44:04.152Z,99750.42
2022-11-21T14:46:38.385Z,99753.17
2022-11-21T14:49:24.798Z,99743.88
2022-11-21T14:52:09.002Z,99736.33
2022-11-21T14:55:14.988Z,99725.09
2022-11-21T14:57:27.292Z,99714.28
2022-11-21T14:59:58.127Z,99713.69
2022-11-21T15:02:32.462Z,99708.02
2022-11-21T15:05:04.516Z,99711.53
2022-11-21T15:07:42.272Z,99694.59
2022-11-21T15:10:32.587Z,99690.54
2022-11-21T15:12:53.331Z,99681.05
2022-11-21T15:15:40.174Z,99678.89
2022-11-21T15:18:30.412Z,99670.58
2022-11-21T15:20:56.815Z,99674.17
2022-11-21T15:23:38.807Z,99666.05
2022-11-21T15:26:10.319Z,99657.59
2022-11-21T15:28:39.543Z,99658.90
2022-11-21T15:31:23.501Z,99653.33
2022-11-21T15:34:34.871Z,99649.51
2022-11-21T15:36:35.486Z,99632.73
2022-11-21T15:39:13.627Z,99632.73
2022-11-21T15:41:42.958Z,99631.09
2022-11-21T15:44:15.348Z,99630.63
2022-11-21T15:46:47.191Z,99624.92
2022-11-21T15:49:33.806Z,99613.05
2022-11-21T15:52:06.650Z,99621.41
2022-11-21T15:54:23.250Z,99615.67
2022-11-21T15:56:52.688Z,99622.44
2022-11-21T15:59:21.909Z,99612.11
2022-11-21T16:01:51.444Z,99607.95
2022-11-21T16:04:25.287Z,99616.45
2022-11-21T16:06:51.823Z,99610.80
2022-11-21T16:09:21.135Z,99605.16
2022-11-21T16:11:50.519Z,99596.09
2022-11-21T16:14:19.747Z,99592.21
2022-11-21T16:16:49.276Z,99584.64
2022-11-21T16:19:18.484Z,99578.64
2022-11-21T16:21:47.758Z,99567.67
2022-11-21T16:24:17.257Z,99564.55
2022-11-21T16:26:47.181Z,99559.83
2022-11-21T16:29:16.594Z,99555.64
2022-11-21T16:31:46.052Z,99551.31
2022-11-21T16:34:18.622Z,99544.20
2022-11-21T16:36:47.124Z,99532.10
2022-11-21T16:39:18.451Z,99526.73
2022-11-21T16:41:49.160Z,99525.00
2022-11-21T16:44:18.468Z,99521.84
2022-11-21T16:46:49.258Z,99514.40
2022-11-21T16:49:20.170Z,99512.26
2022-11-21T16:51:49.376Z,99509.64
2022-11-21T16:54:18.758Z,99504.55
2022-11-21T16:56:47.972Z,99493.89
2022-11-21T16:59:17.453Z,99482.59
2022-11-21T17:01:47.395Z,99478.89
2022-11-21T17:04:17.719Z,99480.87
2022-11-21T17:06:48.859Z,99478.61
2022-11-21T17:09:18.313Z,99478.11
2022-11-21T17:11:47.640Z,99470.77
2022-11-21T17:14:17.082Z,99473.52
2022-11-21T17:16:46.464Z,99469.09
2022-11-21T17:19:16.488Z,99464.61
2022-11-21T17:21:45.795Z,99458.08
2022-11-21T17:24:15.414Z,99455.54
2022-11-21T17:26:44.612Z,99450.97
2022-11-21T17:29:13.962Z,99445.88
2022-11-21T17:31:43.148Z,99445.13
2022-11-21T17:34:13.385Z,99440.93
2022-11-21T17:36:42.571Z,99437.69
2022-11-21T17:39:12.767Z,99430.73
2022-11-21T17:41:41.968Z,99426.53
2022-11-21T17:44:14.622Z,99416.76
2022-11-21T17:46:43.139Z,99406.24
2022-11-21T17:49:12.609Z,99407.94
2022-11-21T17:51:41.893Z,99404.00
2022-11-21T17:54:12.630Z,99396.88
2022-11-21T17:56:46.449Z,99399.50
2022-11-21T17:59:13.620Z,99403.41
2022-11-21T18:01:43.057Z,99400.09
2022-11-21T18:04:15.397Z,99406.53
2022-11-21T18:06:44.852Z,99398.31
2022-11-21T18:09:14.767Z,99397.66
2022-11-21T18:11:44.274Z,99386.58
2022-11-21T18:14:14.415Z,99385.98
2022-11-21T18:16:49.533Z,99378.97
2022-11-21T18:19:15.530Z,99377.95
2022-11-21T18:21:46.056Z,99368.35
2022-11-21T18:24:15.381Z,99366.20
2022-11-21T18:26:45.079Z,99370.02
2022-11-21T18:31:45.668Z,99357.02
2022-11-21T18:34:14.926Z,99358.76
2022-11-21T18:36:44.681Z,99357.18
2022-11-21T18:39:15.486Z,99359.75
2022-11-21T18:41:45.238Z,99362.22
2022-11-21T18:44:21.284Z,99356.98
2022-11-21T18:46:47.063Z,99361.95
2022-11-21T18:49:16.350Z,99353.34
2022-11-21T18:51:45.813Z,99354.86
2022-11-21T18:54:15.105Z,99346.06
2022-11-21T18:56:44.685Z,99342.62
2022-11-21T18:59:13.987Z,99330.52
2022-11-21T19:01:43.797Z,99327.27
2022-11-21T19:04:13.175Z,99321.02
2022-11-21T19:06:42.555Z,99323.09
2022-11-21T19:09:12.086Z,99312.42
2022-11-21T19:11:41.686Z,99313.11
2022-11-21T19:14:11.049Z,99305.55
2022-11-21T19:16:40.916Z,99303.27
2022-11-21T19:21:42.548Z,99314.42
2022-11-21T19:24:19.687Z,99301.67
2022-11-21T19:26:50.597Z,99297.42
2022-11-21T19:29:20.133Z,99292.20
2022-11-21T19:31:49.325Z,99290.81
2022-11-21T19:34:18.751Z,99292.26
2022-11-21T19:36:48.059Z,99281.28
2022-11-21T19:39:18.027Z,99277.27
2022-11-21T19:41:49.615Z,99276.17
2022-11-21T19:44:18.962Z,99270.44
2022-11-21T19:46:49.464Z,99276.28
2022-11-21T19:49:20.128Z,99267.69
2022-11-21T19:51:49.481Z,99265.31
2022-11-21T19:54:18.795Z,99254.85
2022-11-21T19:56:48.235Z,99244.11
2022-11-21T19:59:17.607Z,99234.81
2022-11-21T20:01:52.139Z,99235.29
2022-11-21T20:04:18.005Z,99222.03
2022-11-21T20:06:47.834Z,99221.38
2022-11-21T20:09:19.297Z,99215.89
2022-11-21T20:11:51.518Z,99216.80
2022-11-21T20:14:22.763Z,99210.92
2022-11-21T20:16:53.991Z,99209.28
2022-11-21T20:19:24.983Z,99201.88
2022-11-21T20:21:54.794Z,99209.72
2022-11-21T20:24:24.021Z,99202.89
2022-11-21T20:26:53.843Z,99198.78
2022-11-21T20:29:23.086Z,99194.64
2022-11-21T20:31:52.357Z,99186.80
2022-11-21T20:34:21.766Z,99185.45
2022-11-21T20:36:51.321Z,99179.84
2022-11-21T20:39:21.687Z,99181.58
2022-11-21T20:41:50.958Z,99170.10
2022-11-21T20:46:52.614Z,99159.03
2022-11-21T20:49:22.523Z,99164.25
2022-11-21T20:54:23.078Z,99166.39
2022-11-21T20:56:52.407Z,99173.73
2022-11-21T20:59:21.765Z,99165.13
2022-11-21T21:01:51.163Z,99151.19
2022-11-21T21:04:20.792Z,99148.72
2022-11-21T21:06:50.081Z,99147.73
2022-11-21T21:09:19.475Z,99146.58
2022-11-21T21:11:53.214Z,99137.09
2022-11-21T21:14:19.977Z,99140.40
2022-11-21T21:16:49.421Z,99127.98
2022-11-21T21:19:19.462Z,99133.91
2022-11-21T21:21:48.802Z,99132.74
2022-11-21T21:24:18.729Z,99131.58
2022-11-21T21:26:49.026Z,99128.28
2022-11-21T21:29:19.995Z,99130.81
2022-11-21T21:31:52.236Z,99132.13
2022-11-21T21:34:21.973Z,99131.97
2022-11-21T21:36:52.015Z,99126.09
2022-11-21T21:39:21.508Z,99124.46
2022-11-21T21:41:50.763Z,99136.30
2022-11-21T21:44:20.186Z,99132.63
2022-11-21T21:46:49.540Z,99131.33
2022-11-21T21:49:18.938Z,99126.89
2022-11-21T21:51:48.182Z,99122.47
2022-11-21T21:54:19.633Z,99121.02
2022-11-21T21:56:49.053Z,99122.17
2022-11-21T21:59:19.725Z,99122.69
2022-11-21T22:01:49.251Z,99132.30
2022-11-21T22:04:18.833Z,99129.22
2022-11-21T22:06:48.128Z,99134.77
2022-11-21T22:09:17.476Z,99129.00
2022-11-21T22:11:46.782Z,99133.58
2022-11-21T22:14:16.883Z,99128.53
2022-11-21T22:16:46.516Z,99141.78
2022-11-21T22:19:16.137Z,99144.76
2022-11-21T22:21:46.442Z,99132.16
2022-11-21T22:24:36.788Z,99137.86
2022-11-21T22:27:06.370Z,99137.20
2022-11-21T22:29:35.636Z,99136.52
2022-11-21T22:32:06.656Z,99135.54
2022-11-21T22:34:36.371Z,99130.56
2022-11-21T22:37:05.702Z,99122.78
2022-11-21T22:39:35.455Z,99133.09
2022-11-21T22:42:04.862Z,99141.27
2022-11-21T22:44:34.257Z,99144.72
2022-11-21T22:47:03.620Z,99142.61
2022-11-21T22:49:32.848Z,99143.30
2022-11-21T22:52:02.384Z,99141.99
2022-11-21T22:54:31.956Z,99136.91
2022-11-21T22:57:01.382Z,99129.83
2022-11-21T22:59:30.804Z,99119.08
2022-11-21T23:02:00.244Z,99111.53
2022-11-21T23:04:29.647Z,99105.64
2022-11-21T23:06:58.944Z,99102.19
2022-11-21T23:09:28.439Z,99109.35
2022-11-21T23:11:58.076Z,99112.11
2022-11-21T23:14:27.763Z,99116.25
2022-11-21T23:16:57.429Z,99112.33
2022-11-21T23:19:27.068Z,99114.41
2022-11-21T23:21:56.416Z,99115.17
2022-11-21T23:24:25.831Z,99109.91
2022-11-21T23:26:55.052Z,99118.91
2022-11-21T23:29:24.299Z,99125.23
2022-11-21T23:31:53.514Z,99125.77
2022-11-21T23:34:22.937Z,99122.69
2022-11-21T23:36:52.147Z,99120.83
2022-11-21T23:39:21.533Z,99116.80
2022-11-21T23:41:50.741Z,99111.35
2022-11-21T23:44:20.144Z,99111.97
2022-11-21T23:46:49.348Z,99104.75
2022-11-21T23:49:18.730Z,99107.22
2022-11-21T23:51:47.968Z,99114.73
2022-11-21T23:54:17.192Z,99110.84
2022-11-21T23:56:46.394Z,99109.79
2022-11-21T23:59:15.642Z,99106.48
